Time;durP1;ratioP1;P1;durP2;ratioP2;P2;SDS_P1;SDS_P2;PMS_P1;PMS_P2;Temp;Humidity;BMP_temperature;BMP_pressure;BME280_temperature;BME280_humidity;BME280_pressure;Samples;Min_cycle;Max_cycle;Signal;HPM_P1;HPM_P2
2022/08/16 00:01:30;;;;;;;0.47;0.47;;;16.00;99.90;;;;;;5010475;28;20435;-65
2022/08/16 00:04:01;;;;;;;0.47;0.47;;;15.90;99.90;;;;;;5028041;28;20433;-63
2022/08/16 00:06:31;;;;;;;0.60;0.60;;;16.00;99.90;;;;;;5034107;28;20434;-64
2022/08/16 00:08:58;;;;;;;0.70;0.68;;;16.00;99.90;;;;;;5017730;28;20431;-64
2022/08/16 00:11:25;;;;;;;0.47;0.47;;;16.00;99.90;;;;;;5030764;28;20437;-64
2022/08/16 00:13:52;;;;;;;0.80;0.80;;;16.00;99.90;;;;;;5019818;28;20499;-64
2022/08/16 00:16:27;;;;;;;0.70;0.63;;;16.00;99.90;;;;;;5011216;28;20441;-64
2022/08/16 00:19:18;;;;;;;0.52;0.52;;;16.00;99.90;;;;;;5015011;28;20427;-63
2022/08/16 00:21:45;;;;;;;0.50;0.50;;;16.00;99.90;;;;;;5022461;28;20860;-64
2022/08/16 00:24:24;;;;;;;0.50;0.50;;;16.00;99.90;;;;;;5037279;28;20551;-64
2022/08/16 00:27:02;;;;;;;0.60;0.60;;;16.00;99.90;;;;;;5035214;28;20438;-64
2022/08/16 00:29:33;;;;;;;0.70;0.52;;;16.00;99.90;;;;;;5024453;28;20487;-64
2022/08/16 00:32:03;;;;;;;0.70;0.70;;;16.00;99.90;;;;;;5034361;28;20427;-64
2022/08/16 00:34:34;;;;;;;0.60;0.60;;;16.00;99.90;;;;;;5027157;28;20444;-64
2022/08/16 00:37:22;;;;;;;0.43;0.43;;;16.00;99.90;;;;;;5018009;28;20437;-62
2022/08/16 00:39:52;;;;;;;0.60;0.60;;;15.90;99.90;;;;;;5056890;28;20438;-63
2022/08/16 00:42:28;;;;;;;0.43;0.43;;;16.00;99.90;;;;;;5020708;28;20818;-63
2022/08/16 00:45:07;;;;;;;1.00;0.60;;;15.90;99.90;;;;;;5026184;28;20532;-63
2022/08/16 00:47:41;;;;;;;0.60;0.52;;;15.90;99.90;;;;;;5024029;28;20433;-63
2022/08/16 00:50:19;;;;;;;0.50;0.50;;;15.90;99.90;;;;;;5013104;28;20444;-63
2022/08/16 00:52:46;;;;;;;0.50;0.50;;;15.90;99.90;;;;;;5014687;28;20515;-62
2022/08/16 00:55:22;;;;;;;0.68;0.68;;;15.80;99.90;;;;;;5016308;28;20756;-63
2022/08/16 00:57:53;;;;;;;0.68;0.68;;;15.80;99.90;;;;;;5011800;28;20837;-63
2022/08/16 01:00:29;;;;;;;0.60;0.60;;;15.70;99.90;;;;;;5027161;28;20427;-63
2022/08/16 01:03:07;;;;;;;0.63;0.63;;;15.70;99.90;;;;;;5019442;28;20423;-63
2022/08/16 01:05:39;;;;;;;0.97;0.97;;;15.60;99.90;;;;;;5019554;28;20921;-63
2022/08/16 01:08:08;;;;;;;0.80;0.80;;;15.60;99.90;;;;;;5040354;28;20465;-63
2022/08/16 01:10:55;;;;;;;0.57;0.57;;;15.50;99.90;;;;;;5033397;28;20424;-63
2022/08/16 01:13:28;;;;;;;1.90;0.88;;;15.40;99.90;;;;;;5023077;28;20838;-63
2022/08/16 01:15:59;;;;;;;0.70;0.70;;;15.40;99.90;;;;;;5013660;28;20456;-63
2022/08/16 01:18:37;;;;;;;0.40;0.40;;;15.40;99.90;;;;;;5032352;28;20822;-63
2022/08/16 01:21:25;;;;;;;0.70;0.70;;;15.30;99.90;;;;;;5037227;28;20427;-63
2022/08/16 01:24:26;;;;;;;1.20;0.50;;;15.30;99.90;;;;;;5020302;28;20505;-63
2022/08/16 01:27:16;;;;;;;0.82;0.73;;;15.20;99.90;;;;;;5036949;28;20421;-64
2022/08/16 01:30:25;;;;;;;0.73;0.73;;;15.20;99.90;;;;;;5029133;28;21148;-63
2022/08/16 01:32:55;;;;;;;0.60;0.60;;;15.20;99.90;;;;;;5043312;28;20896;-63
2022/08/16 01:35:46;;;;;;;0.77;0.77;;;15.20;99.90;;;;;;5037744;28;20424;-63
2022/08/16 01:38:23;;;;;;;0.52;0.52;;;15.20;99.90;;;;;;5047091;28;20442;-63
2022/08/16 01:40:56;;;;;;;0.75;0.75;;;15.20;99.90;;;;;;5044933;28;20501;-63
2022/08/16 01:43:28;;;;;;;0.60;0.60;;;15.10;99.90;;;;;;5043611;28;20427;-63
2022/08/16 01:45:59;;;;;;;0.57;0.57;;;15.10;99.90;;;;;;5044670;28;20880;-63
2022/08/16 01:48:47;;;;;;;0.80;0.80;;;15.10;99.90;;;;;;5049426;28;20435;-63
2022/08/16 01:51:16;;;;;;;0.73;0.73;;;15.10;99.90;;;;;;5046268;28;20491;-63
2022/08/16 01:53:45;;;;;;;1.10;1.10;;;15.00;99.90;;;;;;5043948;28;20441;-63
2022/08/16 01:56:21;;;;;;;0.85;0.85;;;15.00;99.90;;;;;;5053453;28;20515;-63
2022/08/16 01:58:53;;;;;;;0.60;0.60;;;14.90;99.90;;;;;;5046540;28;20437;-63
2022/08/16 02:01:21;;;;;;;0.70;0.70;;;14.90;99.90;;;;;;5049712;28;20535;-63
2022/08/16 02:03:49;;;;;;;1.92;0.82;;;14.80;99.90;;;;;;5051274;28;20445;-63
2022/08/16 02:06:18;;;;;;;0.80;0.80;;;14.80;99.90;;;;;;5048211;28;20415;-62
2022/08/16 02:09:02;;;;;;;1.00;0.80;;;14.80;99.90;;;;;;5032267;28;20437;-63
2022/08/16 02:11:31;;;;;;;0.70;0.70;;;14.70;99.90;;;;;;5023077;28;20432;-63
2022/08/16 02:14:19;;;;;;;0.90;0.90;;;14.70;99.90;;;;;;5025083;28;20441;-63
2022/08/16 02:16:48;;;;;;;0.90;0.85;;;14.70;99.90;;;;;;5027414;28;20948;-63
2022/08/16 02:19:17;;;;;;;0.70;0.70;;;14.70;99.90;;;;;;5041720;28;21011;-63
2022/08/16 02:21:50;;;;;;;1.07;0.97;;;14.80;99.90;;;;;;5065254;28;20452;-63
2022/08/16 02:24:38;;;;;;;0.75;0.75;;;14.70;99.90;;;;;;5051774;28;20415;-63
2022/08/16 02:27:12;;;;;;;0.80;0.80;;;14.70;99.90;;;;;;5028422;28;20431;-63
2022/08/16 02:29:41;;;;;;;0.68;0.68;;;14.70;99.90;;;;;;5018188;28;20518;-63
2022/08/16 02:32:11;;;;;;;0.35;0.35;;;14.70;99.90;;;;;;5029680;28;20841;-63
2022/08/16 02:34:58;;;;;;;0.73;0.73;;;14.70;99.90;;;;;;5022544;28;20435;-63
2022/08/16 02:37:26;;;;;;;0.63;0.63;;;14.60;99.90;;;;;;5020437;28;20439;-63
2022/08/16 02:40:15;;;;;;;0.50;0.50;;;14.60;99.90;;;;;;5028608;28;20921;-63
2022/08/16 02:42:48;;;;;;;1.30;1.30;;;14.70;99.90;;;;;;5021773;28;21202;-63
2022/08/16 02:45:18;;;;;;;0.60;0.60;;;14.70;99.90;;;;;;5024241;28;20435;-63
2022/08/16 02:47:45;;;;;;;1.02;0.98;;;14.70;99.90;;;;;;5018120;28;20515;-63
2022/08/16 02:50:33;;;;;;;0.68;0.68;;;14.70;99.90;;;;;;5014377;28;20428;-64
2022/08/16 02:53:22;;;;;;;0.80;0.80;;;14.70;99.90;;;;;;5028039;28;21104;-65
2022/08/16 02:55:52;;;;;;;0.50;0.50;;;14.70;99.90;;;;;;5032676;28;20779;-63
2022/08/16 02:58:22;;;;;;;1.60;0.80;;;14.70;99.90;;;;;;5028245;28;20440;-64
2022/08/16 03:00:53;;;;;;;0.93;0.90;;;14.70;99.90;;;;;;5028022;28;20483;-63
2022/08/16 03:03:22;;;;;;;0.60;0.57;;;14.70;99.90;;;;;;5038512;28;20447;-63
2022/08/16 03:05:50;;;;;;;1.02;0.82;;;14.60;99.90;;;;;;5016149;28;21052;-64
2022/08/16 03:08:19;;;;;;;0.60;0.60;;;14.70;99.90;;;;;;5024553;28;20435;-63
2022/08/16 03:11:07;;;;;;;0.70;0.70;;;14.70;99.90;;;;;;5027418;28;20423;-63
2022/08/16 03:13:53;;;;;;;1.07;1.03;;;14.60;99.90;;;;;;5025217;28;20517;-63
2022/08/16 03:16:33;;;;;;;0.80;0.57;;;14.60;99.90;;;;;;5025003;28;20431;-63
2022/08/16 03:19:19;;;;;;;0.90;0.90;;;14.60;99.90;;;;;;5030377;28;20443;-63
2022/08/16 03:21:48;;;;;;;0.75;0.75;;;14.60;99.90;;;;;;5023964;28;20427;-63
2022/08/16 03:24:17;;;;;;;1.10;1.10;;;14.60;99.90;;;;;;5026991;28;20538;-63
2022/08/16 03:27:00;;;;;;;0.93;0.93;;;14.60;99.90;;;;;;5045715;28;20567;-63
2022/08/16 03:29:33;;;;;;;0.82;0.82;;;14.60;99.90;;;;;;5022705;28;20512;-63
2022/08/16 03:32:01;;;;;;;1.10;1.00;;;14.60;99.90;;;;;;5027189;28;20573;-63
2022/08/16 03:34:29;;;;;;;1.00;1.00;;;14.60;99.90;;;;;;5028409;28;20462;-63
2022/08/16 03:36:56;;;;;;;0.70;0.70;;;14.50;99.90;;;;;;5033630;28;20462;-63
2022/08/16 03:39:23;;;;;;;0.80;0.80;;;14.50;99.90;;;;;;5025886;28;20433;-63
2022/08/16 03:41:50;;;;;;;0.50;0.50;;;14.50;99.90;;;;;;5031531;28;20439;-63
2022/08/16 03:44:26;;;;;;;0.73;0.73;;;14.50;99.90;;;;;;5023691;28;20433;-63
2022/08/16 03:47:13;;;;;;;1.25;0.93;;;14.50;99.90;;;;;;5022411;28;20433;-64
2022/08/16 03:49:46;;;;;;;0.67;0.67;;;14.50;99.90;;;;;;5035353;28;20529;-63
2022/08/16 03:52:19;;;;;;;0.93;0.88;;;14.50;99.90;;;;;;5029276;28;20467;-63
2022/08/16 03:54:49;;;;;;;1.00;0.93;;;14.40;99.90;;;;;;5021794;28;20519;-63
2022/08/16 03:57:26;;;;;;;0.60;0.60;;;14.40;99.90;;;;;;5022893;28;20468;-63
2022/08/16 03:59:57;;;;;;;0.70;0.70;;;14.30;99.90;;;;;;5021043;28;20483;-63
2022/08/16 04:02:27;;;;;;;0.60;0.60;;;14.30;99.90;;;;;;5025438;28;20524;-63
2022/08/16 04:04:57;;;;;;;0.90;0.90;;;14.30;99.90;;;;;;5019973;28;20426;-63
2022/08/16 04:07:24;;;;;;;1.05;1.05;;;14.30;99.90;;;;;;5031986;28;20432;-64
2022/08/16 04:09:51;;;;;;;0.80;0.80;;;14.30;99.90;;;;;;5027571;28;20443;-64
2022/08/16 04:12:18;;;;;;;1.10;1.00;;;14.30;99.90;;;;;;5019099;28;20604;-63
2022/08/16 04:15:11;;;;;;;0.82;0.82;;;14.40;99.90;;;;;;5012005;28;20427;-64
2022/08/16 04:17:42;;;;;;;1.58;0.93;;;14.40;99.90;;;;;;5011545;28;20467;-63
2022/08/16 04:20:12;;;;;;;1.80;0.77;;;14.40;99.90;;;;;;5040909;28;20486;-63
2022/08/16 04:22:59;;;;;;;1.45;0.90;;;14.40;99.90;;;;;;5025612;28;20505;-63
2022/08/16 04:25:28;;;;;;;0.80;0.80;;;14.40;99.90;;;;;;5038716;28;20494;-63
2022/08/16 04:27:58;;;;;;;0.90;0.85;;;14.40;99.90;;;;;;5021420;28;20426;-63
2022/08/16 04:30:44;;;;;;;0.90;0.60;;;14.40;99.90;;;;;;5024880;28;20964;-63
2022/08/16 04:33:15;;;;;;;0.95;0.95;;;14.40;99.90;;;;;;5019330;28;20443;-63
2022/08/16 04:35:42;;;;;;;0.88;0.88;;;14.50;99.90;;;;;;5024186;28;20518;-63
2022/08/16 04:38:15;;;;;;;0.80;0.80;;;14.50;99.90;;;;;;5024588;28;20438;-63
2022/08/16 04:40:47;;;;;;;0.88;0.88;;;14.50;99.90;;;;;;5017858;28;20446;-63
2022/08/16 04:43:17;;;;;;;0.88;0.80;;;14.50;99.90;;;;;;5029603;28;20437;-63
2022/08/16 04:45:45;;;;;;;0.73;0.73;;;14.60;99.90;;;;;;5034957;28;20502;-63
2022/08/16 04:48:26;;;;;;;0.73;0.73;;;14.60;99.90;;;;;;5010157;28;21141;-63
2022/08/16 04:50:59;;;;;;;0.80;0.80;;;14.60;99.90;;;;;;5021545;28;20905;-63
2022/08/16 04:53:34;;;;;;;0.70;0.70;;;14.70;99.90;;;;;;5015982;28;20443;-63
2022/08/16 04:56:06;;;;;;;1.00;1.00;;;14.70;99.90;;;;;;5025720;28;20435;-63
2022/08/16 04:58:37;;;;;;;1.02;1.02;;;14.70;99.90;;;;;;5020439;28;20434;-63
2022/08/16 05:01:12;;;;;;;1.15;0.95;;;14.80;99.90;;;;;;5024469;28;20466;-62
2022/08/16 05:03:41;;;;;;;1.20;0.80;;;14.90;99.90;;;;;;5024805;28;20437;-62
2022/08/16 05:06:27;;;;;;;0.85;0.85;;;15.00;99.90;;;;;;5024172;28;20434;-63
2022/08/16 05:09:11;;;;;;;0.90;0.90;;;15.10;99.90;;;;;;5019427;28;20464;-63
2022/08/16 05:11:42;;;;;;;0.70;0.70;;;15.20;99.90;;;;;;5015159;28;20940;-63
2022/08/16 05:14:09;;;;;;;0.82;0.82;;;15.20;99.90;;;;;;5014348;28;20822;-63
2022/08/16 05:16:45;;;;;;;0.80;0.80;;;15.40;99.90;;;;;;5017462;28;20434;-62
2022/08/16 05:19:17;;;;;;;0.80;0.80;;;15.50;99.90;;;;;;5029964;28;20470;-62
2022/08/16 05:21:44;;;;;;;0.90;0.90;;;15.60;99.90;;;;;;5019941;28;20429;-63
2022/08/16 05:24:12;;;;;;;1.08;1.00;;;15.70;99.90;;;;;;5032410;28;20421;-62
2022/08/16 05:26:39;;;;;;;1.00;0.90;;;15.70;99.90;;;;;;5013088;28;20432;-62
2022/08/16 05:29:09;;;;;;;1.00;0.88;;;15.90;99.90;;;;;;5036466;28;20509;-63
2022/08/16 05:31:40;;;;;;;1.00;1.00;;;16.10;99.90;;;;;;5020130;28;20490;-62
2022/08/16 05:34:20;;;;;;;1.10;1.00;;;16.20;99.90;;;;;;5034947;28;20457;-63
2022/08/16 05:36:49;;;;;;;1.00;1.00;;;16.40;99.90;;;;;;5038987;28;20519;-62
2022/08/16 05:39:18;;;;;;;1.13;0.97;;;16.60;99.90;;;;;;5022938;28;20436;-63
2022/08/16 05:41:48;;;;;;;1.58;1.05;;;16.80;99.90;;;;;;5013758;28;20836;-63
2022/08/16 05:44:19;;;;;;;0.98;0.98;;;17.00;99.90;;;;;;5011168;28;20460;-62
2022/08/16 05:46:52;;;;;;;1.27;1.27;;;17.10;99.90;;;;;;5019910;28;20549;-63
2022/08/16 05:49:20;;;;;;;1.70;1.25;;;17.30;99.90;;;;;;5015691;28;21276;-63
2022/08/16 05:51:49;;;;;;;1.60;1.50;;;17.70;99.90;;;;;;5018282;28;20434;-63
2022/08/16 05:54:16;;;;;;;1.40;1.10;;;18.30;99.90;;;;;;5009562;28;20427;-63
2022/08/16 05:56:51;;;;;;;1.55;1.10;;;18.70;99.90;;;;;;5016871;28;20442;-63
2022/08/16 05:59:18;;;;;;;1.23;1.23;;;19.10;99.90;;;;;;5014991;28;20437;-64
2022/08/16 06:01:49;;;;;;;1.48;1.38;;;19.50;99.90;;;;;;5019977;28;20441;-64
2022/08/16 06:04:17;;;;;;;1.33;1.23;;;19.90;99.90;;;;;;5024364;28;20913;-63
2022/08/16 06:07:05;;;;;;;1.65;1.52;;;20.30;99.90;;;;;;5032098;28;20538;-64
2022/08/16 06:09:50;;;;;;;1.48;1.42;;;20.80;99.90;;;;;;5017961;28;20929;-64
2022/08/16 06:12:18;;;;;;;1.50;1.50;;;21.00;99.90;;;;;;5020168;28;20437;-63
2022/08/16 06:15:00;;;;;;;1.70;1.60;;;21.10;99.90;;;;;;5026343;28;20443;-63
2022/08/16 06:17:30;;;;;;;1.20;1.20;;;21.60;99.90;;;;;;5020343;28;20443;-63
2022/08/16 06:20:16;;;;;;;1.52;1.50;;;21.60;99.90;;;;;;5017412;28;20855;-63
2022/08/16 06:22:49;;;;;;;1.20;1.20;;;21.30;99.90;;;;;;5017720;28;20440;-63
2022/08/16 06:25:31;;;;;;;1.70;1.60;;;21.80;99.90;;;;;;5018355;28;20425;-64
2022/08/16 06:28:03;;;;;;;1.40;1.30;;;22.30;99.90;;;;;;5021199;28;20457;-64
2022/08/16 06:30:35;;;;;;;1.20;1.20;;;22.50;99.90;;;;;;5026839;28;20494;-63
2022/08/16 06:33:10;;;;;;;1.38;1.27;;;22.90;99.90;;;;;;5032109;28;20897;-63
2022/08/16 06:35:38;;;;;;;1.20;1.20;;;23.00;99.90;;;;;;5017451;28;20949;-63
2022/08/16 06:38:08;;;;;;;1.20;1.10;;;22.80;99.90;;;;;;5036455;28;21058;-63
2022/08/16 06:40:55;;;;;;;1.33;1.23;;;23.10;99.90;;;;;;5020619;28;20429;-64
2022/08/16 06:43:22;;;;;;;1.67;1.58;;;23.30;99.90;;;;;;5058264;28;20427;-64
2022/08/16 06:45:54;;;;;;;1.42;1.33;;;23.80;99.90;;;;;;5017189;28;20463;-64
2022/08/16 06:48:21;;;;;;;1.57;1.47;;;23.90;99.90;;;;;;5022492;28;20984;-64
2022/08/16 06:51:03;;;;;;;1.38;1.27;;;24.60;99.90;;;;;;5017716;28;20454;-64
2022/08/16 06:53:32;;;;;;;1.45;1.45;;;25.20;99.90;;;;;;5017495;28;20457;-64
2022/08/16 06:56:05;;;;;;;1.85;1.48;;;25.30;99.90;;;;;;5029126;28;20434;-64
2022/08/16 06:58:50;;;;;;;1.50;1.50;;;25.70;99.90;;;;;;5020077;28;20430;-64
2022/08/16 07:01:18;;;;;;;1.63;1.53;;;26.30;99.90;;;;;;5030669;28;20442;-64
2022/08/16 07:04:05;;;;;;;1.42;1.33;;;26.20;99.90;;;;;;5033289;28;20521;-64
2022/08/16 07:06:39;;;;;;;1.40;1.30;;;26.20;99.90;;;;;;5019807;28;20512;-64
2022/08/16 07:09:10;;;;;;;1.45;1.35;;;26.30;99.90;;;;;;5022640;28;20491;-64
2022/08/16 07:11:37;;;;;;;1.58;1.55;;;26.20;99.90;;;;;;5036955;28;20524;-64
2022/08/16 07:14:17;;;;;;;1.70;1.60;;;25.60;99.90;;;;;;5021083;28;20432;-63
2022/08/16 07:16:57;;;;;;;1.58;1.50;;;25.50;99.90;;;;;;5035880;28;20435;-63
2022/08/16 07:19:31;;;;;;;1.63;1.53;;;25.80;99.90;;;;;;5019008;28;20921;-64
2022/08/16 07:22:25;;;;;;;1.92;1.83;;;26.00;99.90;;;;;;5011464;28;20408;-64
2022/08/16 07:25:08;;;;;;;1.20;1.20;;;26.40;99.90;;;;;;5027338;28;20525;-64
2022/08/16 07:27:38;;;;;;;1.42;1.40;;;25.80;99.90;;;;;;5051566;28;20959;-64
2022/08/16 07:30:10;;;;;;;1.23;1.23;;;25.30;99.90;;;;;;5024152;28;20429;-64
2022/08/16 07:32:57;;;;;;;1.55;1.48;;;25.40;99.90;;;;;;5012241;28;20413;-64
2022/08/16 07:35:25;;;;;;;1.70;1.60;;;25.90;99.90;;;;;;5028691;28;20488;-64
2022/08/16 07:37:52;;;;;;;1.35;1.25;;;25.90;99.90;;;;;;5021703;28;20443;-63
2022/08/16 07:40:19;;;;;;;1.10;1.10;;;26.60;99.90;;;;;;5010507;28;20504;-65
2022/08/16 07:43:06;;;;;;;1.48;1.38;;;27.20;99.90;;;;;;5013616;28;21096;-63
2022/08/16 07:45:33;;;;;;;1.17;1.17;;;27.40;99.90;;;;;;5021467;28;20459;-64
2022/08/16 07:48:00;;;;;;;1.38;1.38;;;27.60;99.90;;;;;;5022650;28;20509;-64
2022/08/16 07:50:38;;;;;;;1.27;1.20;;;27.10;99.90;;;;;;5010632;28;20472;-64
2022/08/16 07:53:29;;;;;;;1.65;1.55;;;27.30;99.90;;;;;;5028173;28;20434;-63
2022/08/16 07:55:59;;;;;;;1.73;1.67;;;26.80;99.90;;;;;;5019937;28;20451;-64
2022/08/16 07:58:28;;;;;;;1.30;1.30;;;26.50;99.90;;;;;;5016456;28;20427;-64
2022/08/16 08:01:04;;;;;;;1.60;1.50;;;26.90;99.90;;;;;;5018129;28;20424;-63
2022/08/16 08:03:45;;;;;;;1.30;1.30;;;26.80;99.90;;;;;;5016757;28;20538;-62
2022/08/16 08:06:22;;;;;;;2.00;1.90;;;26.80;99.90;;;;;;5013381;28;20915;-64
2022/08/16 08:08:51;;;;;;;1.20;1.20;;;26.90;99.90;;;;;;5021856;28;20460;-64
2022/08/16 08:11:28;;;;;;;1.60;1.50;;;27.50;99.90;;;;;;5037208;28;20439;-64
2022/08/16 08:13:58;;;;;;;1.77;1.67;;;27.90;99.90;;;;;;5040849;28;20432;-63
2022/08/16 08:16:30;;;;;;;1.35;1.35;;;27.70;99.90;;;;;;5018335;28;20432;-64
2022/08/16 08:19:00;;;;;;;1.85;1.65;;;27.20;99.90;;;;;;5009831;28;20527;-64
2022/08/16 08:21:29;;;;;;;1.70;1.60;;;27.60;99.90;;;;;;5013891;28;20457;-63
2022/08/16 08:24:16;;;;;;;1.20;1.20;;;27.40;99.90;;;;;;5012001;28;20825;-63
2022/08/16 08:26:43;;;;;;;1.60;1.50;;;27.50;99.90;;;;;;5022066;28;20428;-63
2022/08/16 08:29:17;;;;;;;2.03;1.67;;;27.10;99.90;;;;;;5009889;28;20429;-64
2022/08/16 08:31:48;;;;;;;1.90;1.80;;;26.40;99.90;;;;;;5014201;28;20450;-64
2022/08/16 08:34:17;;;;;;;1.80;1.70;;;26.60;99.90;;;;;;5016652;28;20946;-64
2022/08/16 08:36:44;;;;;;;1.50;1.40;;;26.90;99.90;;;;;;5019386;28;20526;-64
2022/08/16 08:39:14;;;;;;;1.98;1.88;;;27.10;99.90;;;;;;5028349;28;20922;-64
2022/08/16 08:41:42;;;;;;;1.63;1.40;;;27.30;99.90;;;;;;5013761;28;20427;-64
2022/08/16 08:44:12;;;;;;;1.50;1.40;;;27.80;99.90;;;;;;5024358;28;20483;-62
2022/08/16 08:47:05;;;;;;;1.90;1.80;;;27.30;99.90;;;;;;5014892;28;20439;-64
2022/08/16 08:49:37;;;;;;;1.50;1.50;;;27.70;99.90;;;;;;5014696;28;20773;-63
2022/08/16 08:52:22;;;;;;;1.63;1.52;;;27.40;99.90;;;;;;5014910;28;20999;-63
2022/08/16 08:55:04;;;;;;;1.20;1.20;;;27.00;99.90;;;;;;5008895;28;21043;-64
2022/08/16 08:57:38;;;;;;;1.42;1.13;;;27.00;99.90;;;;;;5014939;28;20438;-64
2022/08/16 09:00:08;;;;;;;1.67;1.58;;;27.00;99.90;;;;;;5026960;28;20442;-64
2022/08/16 09:02:42;;;;;;;1.42;1.33;;;27.20;99.90;;;;;;5017355;28;20431;-64
2022/08/16 09:05:16;;;;;;;1.38;1.38;;;27.90;99.90;;;;;;5009451;28;20428;-64
2022/08/16 09:07:44;;;;;;;1.80;1.58;;;28.50;99.90;;;;;;5010266;28;20428;-63
2022/08/16 09:10:27;;;;;;;1.83;1.40;;;28.30;99.90;;;;;;5011578;28;20457;-63
2022/08/16 09:13:01;;;;;;;1.63;1.52;;;28.00;99.90;;;;;;5021828;28;20870;-63
2022/08/16 09:15:28;;;;;;;1.50;1.40;;;28.10;99.90;;;;;;5016637;28;20483;-64
2022/08/16 09:18:00;;;;;;;1.40;1.40;;;28.20;99.90;;;;;;5022438;28;20440;-64
2022/08/16 09:20:51;;;;;;;1.10;1.10;;;28.10;99.90;;;;;;5016638;28;20425;-64
2022/08/16 09:23:34;;;;;;;1.70;1.30;;;28.70;99.90;;;;;;5009384;28;20523;-64
2022/08/16 09:26:04;;;;;;;1.20;1.13;;;29.20;99.90;;;;;;5013056;28;20431;-63
2022/08/16 09:28:51;;;;;;;1.10;1.10;;;29.30;99.90;;;;;;5027650;28;20514;-64
2022/08/16 09:31:38;;;;;;;1.10;1.10;;;28.80;99.90;;;;;;5013396;28;20421;-64
2022/08/16 09:34:08;;;;;;;1.75;1.67;;;28.80;99.90;;;;;;5021778;28;20429;-64
2022/08/16 09:36:36;;;;;;;1.33;1.20;;;28.90;99.90;;;;;;5022763;28;20467;-63
2022/08/16 09:39:12;;;;;;;1.15;1.15;;;28.80;99.90;;;;;;5014838;28;20470;-63
2022/08/16 09:41:42;;;;;;;1.17;1.08;;;29.00;99.90;;;;;;5030798;28;20518;-62
2022/08/16 09:44:23;;;;;;;0.90;0.90;;;29.40;99.90;;;;;;5013152;28;20426;-62
2022/08/16 09:47:10;;;;;;;1.40;1.40;;;30.00;99.90;;;;;;5017343;28;20468;-63
2022/08/16 09:49:36;;;;;;;1.00;1.00;;;29.70;99.90;;;;;;5024863;28;20527;-63
2022/08/16 09:52:08;;;;;;;1.42;1.40;;;29.50;99.90;;;;;;5017880;28;20493;-64
2022/08/16 09:54:36;;;;;;;1.30;1.30;;;29.60;99.90;;;;;;5017217;28;20436;-62
2022/08/16 09:57:03;;;;;;;1.90;1.23;;;29.40;99.90;;;;;;5021014;28;21423;-62
2022/08/16 09:59:30;;;;;;;0.90;0.90;;;28.40;99.90;;;;;;5026897;28;20533;-62
2022/08/16 10:02:05;;;;;;;0.95;0.95;;;28.80;99.90;;;;;;5016739;28;20523;-64
2022/08/16 10:04:52;;;;;;;1.03;1.00;;;29.20;99.90;;;;;;5028600;28;21052;-63
2022/08/16 10:07:21;;;;;;;1.20;1.20;;;29.90;99.90;;;;;;5025652;28;20431;-64
2022/08/16 10:09:48;;;;;;;0.80;0.80;;;30.30;99.90;;;;;;5023819;28;20461;-63
2022/08/16 10:15:14;;;;;;;0.80;0.80;;;30.50;99.90;;;;;;5030194;28;20438;-63
2022/08/16 10:17:48;;;;;;;0.80;0.80;;;29.30;99.90;;;;;;5012400;28;20436;-63
2022/08/16 10:20:35;;;;;;;0.73;0.73;;;29.40;99.90;;;;;;5019127;28;20557;-63
2022/08/16 10:23:07;;;;;;;0.60;0.60;;;29.60;99.90;;;;;;5016897;28;20907;-63
2022/08/16 10:25:44;;;;;;;0.90;0.90;;;30.00;99.90;;;;;;5012919;28;20510;-62
2022/08/16 10:28:31;;;;;;;0.90;0.90;;;29.20;99.90;;;;;;5014865;28;20413;-62
2022/08/16 10:31:09;;;;;;;0.80;0.80;;;29.00;99.90;;;;;;5023494;28;20524;-62
2022/08/16 10:33:42;;;;;;;0.50;0.50;;;29.50;99.90;;;;;;5028907;28;20469;-63
2022/08/16 10:36:11;;;;;;;0.70;0.70;;;29.90;99.90;;;;;;5011617;28;20529;-62
2022/08/16 10:38:58;;;;;;;0.80;0.80;;;30.20;99.90;;;;;;5015732;28;20516;-62
2022/08/16 10:41:24;;;;;;;0.90;0.90;;;30.40;99.90;;;;;;5018560;28;20436;-62
2022/08/16 10:43:55;;;;;;;0.90;0.90;;;30.00;99.90;;;;;;5026465;28;20431;-62
2022/08/16 10:46:25;;;;;;;0.98;0.98;;;29.20;99.90;;;;;;5013840;28;20508;-63
2022/08/16 10:49:10;;;;;;;0.73;0.73;;;30.00;99.90;;;;;;5011050;28;20424;-62
2022/08/16 10:51:40;;;;;;;1.00;1.00;;;30.40;99.90;;;;;;5013088;28;20442;-63
2022/08/16 10:54:27;;;;;;;0.80;0.80;;;30.80;99.90;;;;;;5015207;28;20423;-63
2022/08/16 10:56:57;;;;;;;1.00;1.00;;;31.20;99.90;;;;;;5021503;28;20464;-63
2022/08/16 10:59:25;;;;;;;0.82;0.82;;;31.10;99.90;;;;;;5023446;28;20832;-64
2022/08/16 11:02:12;;;;;;;0.90;0.90;;;31.20;99.90;;;;;;5019435;28;20423;-64
2022/08/16 11:04:59;;;;;;;0.80;0.80;;;31.40;99.90;;;;;;5021363;28;20434;-63
2022/08/16 11:07:35;;;;;;;1.20;1.20;;;31.00;99.90;;;;;;5028909;28;20438;-62
2022/08/16 11:10:30;;;;;;;0.80;0.80;;;30.70;99.90;;;;;;5025840;28;20439;-63
2022/08/16 11:13:24;;;;;;;1.30;1.00;;;30.40;99.90;;;;;;5010397;28;20429;-63
2022/08/16 11:16:11;;;;;;;0.70;0.70;;;31.10;99.90;;;;;;5024207;28;20434;-63
2022/08/16 11:18:58;;;;;;;0.80;0.80;;;31.00;99.90;;;;;;5011036;28;20420;-63
2022/08/16 11:21:35;;;;;;;0.95;0.95;;;31.20;99.90;;;;;;5017409;28;20962;-63
2022/08/16 11:24:23;;;;;;;0.68;0.68;;;30.50;99.90;;;;;;5020999;28;20440;-64
2022/08/16 11:27:07;;;;;;;0.80;0.80;;;30.60;99.90;;;;;;5010771;28;20447;-63
2022/08/16 11:29:55;;;;;;;0.88;0.88;;;30.40;99.90;;;;;;5011812;28;20961;-64
2022/08/16 11:32:25;;;;;;;0.80;0.80;;;30.40;99.90;;;;;;5016420;28;20817;-64
2022/08/16 11:35:09;;;;;;;1.90;1.17;;;31.10;99.90;;;;;;5012300;28;20432;-63
2022/08/16 11:37:44;;;;;;;0.90;0.90;;;30.80;99.90;;;;;;5041796;28;20435;-62
2022/08/16 11:40:37;;;;;;;0.90;0.90;;;30.20;99.90;;;;;;5015726;28;20520;-63
2022/08/16 11:43:05;;;;;;;0.90;0.90;;;30.70;99.90;;;;;;5021147;28;20444;-63
2022/08/16 11:45:35;;;;;;;1.07;1.07;;;31.20;99.90;;;;;;5018802;28;20427;-62
2022/08/16 11:48:08;;;;;;;0.80;0.80;;;31.00;99.90;;;;;;5018310;28;20563;-63
2022/08/16 11:50:35;;;;;;;0.90;0.90;;;30.50;99.90;;;;;;5011077;28;20431;-63
2022/08/16 11:53:04;;;;;;;0.80;0.80;;;31.00;99.90;;;;;;5014333;28;20457;-63
2022/08/16 11:55:34;;;;;;;0.70;0.70;;;30.90;99.90;;;;;;5010124;28;20487;-63
2022/08/16 11:58:06;;;;;;;0.80;0.80;;;31.00;99.90;;;;;;5019794;28;20797;-64
2022/08/16 12:00:34;;;;;;;1.05;1.05;;;30.90;99.90;;;;;;5035224;28;20431;-61
2022/08/16 12:03:18;;;;;;;0.90;0.90;;;30.90;99.90;;;;;;5020951;28;20436;-63
2022/08/16 12:05:45;;;;;;;0.80;0.80;;;30.90;99.90;;;;;;5009788;28;20482;-63
2022/08/16 12:08:18;;;;;;;0.63;0.63;;;30.70;99.90;;;;;;5012490;28;20426;-64
2022/08/16 12:10:45;;;;;;;0.82;0.82;;;31.40;99.90;;;;;;5022979;28;20437;-64
2022/08/16 12:13:13;;;;;;;0.82;0.82;;;31.60;99.40;;;;;;5009847;28;20436;-65
2022/08/16 12:15:43;;;;;;;0.80;0.80;;;32.20;98.80;;;;;;5011303;28;20676;-64
2022/08/16 12:18:16;;;;;;;0.90;0.90;;;32.10;97.90;;;;;;5023250;28;20520;-63
2022/08/16 12:20:47;;;;;;;0.87;0.87;;;31.30;98.50;;;;;;5043054;28;20434;-63
2022/08/16 12:23:15;;;;;;;0.90;0.90;;;31.00;99.70;;;;;;5019053;28;20931;-61
2022/08/16 12:25:43;;;;;;;1.00;1.00;;;30.50;99.70;;;;;;5025410;28;20432;-64
2022/08/16 12:28:11;;;;;;;0.90;0.90;;;30.80;99.60;;;;;;5023230;28;20468;-64
2022/08/16 12:30:42;;;;;;;0.90;0.90;;;31.00;99.00;;;;;;5013787;28;20467;-63
2022/08/16 12:33:11;;;;;;;0.80;0.80;;;30.70;99.40;;;;;;5019073;28;20430;-63
2022/08/16 12:35:38;;;;;;;0.80;0.80;;;30.10;99.60;;;;;;5013436;28;20442;-63
2022/08/16 12:38:06;;;;;;;0.80;0.80;;;29.80;99.80;;;;;;5014114;28;20525;-63
2022/08/16 12:40:53;;;;;;;0.70;0.70;;;29.90;99.90;;;;;;5026612;28;20516;-64
2022/08/16 12:43:24;;;;;;;1.00;0.90;;;30.50;99.40;;;;;;5009084;28;21269;-62
2022/08/16 12:45:54;;;;;;;0.70;0.70;;;30.70;99.30;;;;;;5009468;28;20433;-63
2022/08/16 12:51:13;;;;;;;0.80;0.80;;;30.00;99.50;;;;;;5020454;28;20569;-63
2022/08/16 12:53:53;;;;;;;0.90;0.90;;;29.90;99.80;;;;;;5010371;28;20460;-64
2022/08/16 12:56:28;;;;;;;1.10;0.80;;;30.10;99.60;;;;;;5010842;28;20428;-64
2022/08/16 12:58:56;;;;;;;0.80;0.80;;;30.80;99.50;;;;;;5023120;28;20431;-64
2022/08/16 13:01:26;;;;;;;0.80;0.80;;;31.10;98.90;;;;;;5019007;28;20430;-64
2022/08/16 13:03:54;;;;;;;0.70;0.70;;;31.10;98.70;;;;;;5051631;28;20910;-64
2022/08/16 13:06:48;;;;;;;0.80;0.80;;;31.80;98.50;;;;;;5023306;28;20500;-63
2022/08/16 13:09:30;;;;;;;0.80;0.80;;;32.60;97.70;;;;;;5021437;28;20454;-62
2022/08/16 13:12:22;;;;;;;1.20;0.80;;;32.60;96.70;;;;;;5013047;28;20490;-63
2022/08/16 13:14:52;;;;;;;0.60;0.60;;;32.70;97.20;;;;;;5022544;28;20486;-63
2022/08/16 13:17:25;;;;;;;0.70;0.70;;;32.60;95.70;;;;;;5016674;28;20462;-63
2022/08/16 13:19:55;;;;;;;0.90;0.90;;;32.20;95.90;;;;;;5023232;28;21122;-63
2022/08/16 13:22:48;;;;;;;0.70;0.70;;;32.00;95.80;;;;;;5015058;28;20516;-64
2022/08/16 13:25:20;;;;;;;0.80;0.80;;;32.30;96.70;;;;;;5013308;28;20432;-63
2022/08/16 13:27:51;;;;;;;0.80;0.80;;;32.40;95.50;;;;;;5021484;28;20454;-63
2022/08/16 13:30:32;;;;;;;0.60;0.60;;;32.60;95.30;;;;;;5016001;28;20463;-63
2022/08/16 13:33:09;;;;;;;0.75;0.75;;;32.50;94.50;;;;;;5025488;28;20471;-63